»·PEaware :: N32115 KAVX-KSAN

N32115 :: KAVX-KSAN

FLIGHT INFORMATION

Flight Status: Arrived
Operator: Privately registered:
United States
More flights under this callsign
Pilot: Travis S. (24866)
Aircraft: Unknown
(P28U)
More flights by this aircraft type
Origin: KAVX Catalina
United States
Destination: KSAN San Diego Intl-Lindbergh
United States
More flights between these airports :: More routes between these airports
Route: SXC V208 OCN V23 MZB
File this flight plan on PilotEdge
Remarks: I-8
Altitude:
(Current/Filed)
5,000ft
Speed:
(Current/Filed)
130kts
Departed: 01-Jan-20 08:59 AM
Arrived: 01-Jan-20 10:00 AM
Distance/Time
Traveled:
74nm/1:01
Distance/Time
To Go:
Arrived

Flight Plot

Page will automatically refresh every two minutes.


Map Options




Map Legend


Flown Route
Filed Route
Departure Airport
Arrival Airport
Navaid (VOR, NDB)
Fix

Horizontal Profiles

Position Reports

Time Latitude Longitude Heading Altitude Ground
Speed
01-Jan-20 08:31 33.403380 -118.415567 268 1575ft 0kts
01-Jan-20 08:32 33.403380 -118.415567 268 1575ft 0kts
01-Jan-20 08:33 33.403380 -118.415567 268 1575ft 0kts
01-Jan-20 08:34 33.403380 -118.415567 268 1575ft 0kts
01-Jan-20 08:35 33.403380 -118.415567 268 1575ft 0kts
01-Jan-20 08:36 33.403380 -118.415567 268 1575ft 0kts
01-Jan-20 08:37 33.403380 -118.415567 268 1575ft 0kts
01-Jan-20 08:38 33.403380 -118.415567 268 1575ft 0kts
01-Jan-20 08:39 33.403380 -118.415567 268 1575ft 0kts
01-Jan-20 08:40 33.403380 -118.415567 268 1575ft 0kts
01-Jan-20 08:41 33.403380 -118.415567 268 1575ft 0kts
01-Jan-20 08:42 33.403380 -118.415567 268 1575ft 0kts
01-Jan-20 08:43 33.403380 -118.415567 268 1575ft 0kts
01-Jan-20 08:44 33.403380 -118.415567 268 1575ft 0kts
01-Jan-20 08:45 33.403380 -118.415567 268 1575ft 0kts
01-Jan-20 08:45 33.403380 -118.415567 268 1575ft 0kts
01-Jan-20 08:47 33.403380 -118.415567 268 1575ft 0kts
01-Jan-20 08:48 33.403380 -118.415567 268 1575ft 0kts
01-Jan-20 08:48 33.403380 -118.415567 268 1575ft 0kts
01-Jan-20 08:50 33.403380 -118.415567 268 1575ft 0kts
01-Jan-20 08:50 33.403380 -118.415567 268 1575ft 0kts
01-Jan-20 08:51 33.403380 -118.415567 268 1575ft 0kts
01-Jan-20 08:53 33.403380 -118.415567 268 1575ft 0kts
01-Jan-20 08:53 33.403380 -118.415567 268 1575ft 0kts
01-Jan-20 08:54 33.403380 -118.415567 268 1575ft 0kts
01-Jan-20 08:55 33.403379 -118.415584 268 1575ft 1kts
01-Jan-20 08:56 33.403303 -118.417933 236 1603ft 16kts
01-Jan-20 08:57 33.402869 -118.419396 51 1611ft 10kts
01-Jan-20 08:58 33.413712 -118.401492 51 1909ft 81kts
01-Jan-20 08:59 33.431658 -118.400959 320 2561ft 77kts
01-Jan-20 09:00 33.433712 -118.419346 201 3253ft 73kts
01-Jan-20 09:01 33.412029 -118.419833 184 3886ft 79kts
01-Jan-20 09:02 33.389565 -118.419647 185 4493ft 82kts
01-Jan-20 09:03 33.372886 -118.405369 98 4986ft 99kts
01-Jan-20 09:04 33.368335 -118.367630 97 4980ft 120kts
01-Jan-20 09:05 33.363161 -118.327841 98 4980ft 121kts
01-Jan-20 09:06 33.357929 -118.287780 97 4981ft 123kts
01-Jan-20 09:07 33.352562 -118.246898 97 4980ft 124kts
01-Jan-20 09:08 33.347113 -118.205544 97 4985ft 135kts
01-Jan-20 09:09 33.340687 -118.157510 97 4981ft 150kts
01-Jan-20 09:10 33.334080 -118.107838 97 4980ft 151kts
01-Jan-20 09:11 33.327475 -118.058099 96 4981ft 151kts
01-Jan-20 09:12 33.320877 -118.008563 96 4982ft 150kts
01-Jan-20 09:13 33.314327 -117.959533 95 4984ft 148kts
01-Jan-20 09:14 33.307826 -117.911042 94 4986ft 146kts
01-Jan-20 09:15 33.301417 -117.863378 94 4988ft 143kts
01-Jan-20 09:16 33.295175 -117.817116 94 4989ft 141kts
01-Jan-20 09:17 33.288921 -117.770993 94 4989ft 140kts
01-Jan-20 09:18 33.282495 -117.725175 95 4990ft 140kts
01-Jan-20 09:19 33.275473 -117.679189 95 4990ft 140kts
01-Jan-20 09:20 33.268550 -117.633500 95 4990ft 140kts
01-Jan-20 09:21 33.261614 -117.587693 95 4990ft 140kts
01-Jan-20 09:22 33.255498 -117.541710 93 4991ft 140kts
01-Jan-20 09:23 33.250005 -117.495166 93 4991ft 141kts
01-Jan-20 09:24 33.244318 -117.448402 93 4992ft 142kts
01-Jan-20 09:25 33.224570 -117.410558 155 4990ft 151kts
01-Jan-20 09:26 33.185090 -117.394132 158 4984ft 149kts
01-Jan-20 09:27 33.146145 -117.377903 156 4978ft 148kts
01-Jan-20 09:28 33.107543 -117.361701 156 4971ft 146kts
01-Jan-20 09:29 33.069502 -117.345679 156 4982ft 145kts
01-Jan-20 09:30 33.031086 -117.329555 156 4982ft 146kts
01-Jan-20 09:31 32.992705 -117.313458 156 4982ft 146kts
01-Jan-20 09:32 32.954447 -117.297427 155 4982ft 146kts
01-Jan-20 09:33 32.916072 -117.281353 156 4984ft 147kts
01-Jan-20 09:34 32.877384 -117.265169 156 4984ft 148kts
01-Jan-20 09:35 32.838857 -117.249066 157 4986ft 147kts
01-Jan-20 09:36 32.809745 -117.223151 102 4951ft 137kts
01-Jan-20 09:37 32.799659 -117.182008 101 4952ft 135kts
01-Jan-20 09:38 32.789754 -117.140648 101 4945ft 134kts
01-Jan-20 09:39 32.780071 -117.099087 101 4937ft 134kts
01-Jan-20 09:40 32.771619 -117.062409 101 4936ft 135kts
01-Jan-20 09:41 32.764393 -117.030704 100 4937ft 136kts
01-Jan-20 09:42 32.753913 -116.984048 100 4941ft 136kts
01-Jan-20 09:43 32.742709 -116.933313 100 4948ft 136kts
01-Jan-20 09:44 32.718927 -116.904521 188 4953ft 147kts
01-Jan-20 09:45 32.679739 -116.914467 189 4942ft 142kts
01-Jan-20 09:46 32.641243 -116.925167 189 4927ft 141kts
01-Jan-20 09:47 32.603131 -116.935931 189 4925ft 140kts
01-Jan-20 09:48 32.565028 -116.946196 188 4925ft 141kts
01-Jan-20 09:49 32.551211 -116.923821 32 4934ft 123kts
01-Jan-20 09:50 32.585861 -116.918693 8 4940ft 128kts
01-Jan-20 09:51 32.621554 -116.915398 8 4935ft 130kts
01-Jan-20 09:52 32.651138 -116.935199 317 4506ft 135kts
01-Jan-20 09:53 32.675655 -116.967619 301 3609ft 135kts
01-Jan-20 09:54 32.688509 -117.008963 289 3461ft 137kts
01-Jan-20 09:55 32.700025 -117.054672 288 2637ft 148kts
01-Jan-20 09:56 32.711488 -117.100843 287 1666ft 144kts
01-Jan-20 09:57 32.721350 -117.140801 287 765ft 111kts
01-Jan-20 09:58 32.729146 -117.171434 286 203ft 84kts
01-Jan-20 09:59 32.733967 -117.188034 39 16ft 0kts
01-Jan-20 10:00 32.733967 -117.188033 39 16ft 0kts
01-Jan-20 10:01 32.733844 -117.186076 106 16ft 11kts
01-Jan-20 10:02 32.732731 -117.181500 106 15ft 17kts
01-Jan-20 10:03 32.733221 -117.179092 163 20ft 0kts
01-Jan-20 10:04 32.733221 -117.179092 163 20ft 0kts
01-Jan-20 10:05 32.733221 -117.179092 163 20ft 0kts
01-Jan-20 10:06 32.733221 -117.179092 163 20ft 0kts
01-Jan-20 10:07 32.733221 -117.179092 163 20ft 0kts

Navigation Log

Ident Type
Flight plan parsing failed, navigation log unavailable